createdAt,value
2019-03-06T00:02:51.999Z,9.57
2019-03-06T00:05:55.726Z,9.43
2019-03-06T00:08:59.510Z,10.17
2019-03-06T00:12:03.816Z,9.97
2019-03-06T00:15:08.473Z,9.47
2019-03-06T00:18:12.234Z,9.30
2019-03-06T00:21:15.935Z,9.77
2019-03-06T00:24:19.777Z,9.88
2019-03-06T00:27:23.490Z,9.70
2019-03-06T00:30:27.139Z,9.70
2019-03-06T00:33:30.847Z,9.70
2019-03-06T00:36:35.083Z,9.70
2019-03-06T00:39:45.565Z,9.63
2019-03-06T00:42:49.583Z,8.73
2019-03-06T00:45:53.689Z,9.97
2019-03-06T00:48:57.566Z,9.83
2019-03-06T00:52:01.257Z,9.23
2019-03-06T00:55:05.560Z,9.63
2019-03-06T00:58:10.238Z,9.50
2019-03-06T01:01:14.238Z,9.83
2019-03-06T01:04:18.138Z,9.30
2019-03-06T01:07:21.829Z,9.58
2019-03-06T01:10:25.801Z,10.05
2019-03-06T01:13:29.829Z,8.80
2019-03-06T01:16:33.558Z,9.78
2019-03-06T01:19:37.277Z,10.57
2019-03-06T01:22:40.979Z,10.10
2019-03-06T01:25:44.721Z,9.10
2019-03-06T01:28:48.394Z,9.87
2019-03-06T01:31:52.092Z,9.77
2019-03-06T01:35:20.959Z,10.50
2019-03-06T01:38:36.689Z,10.47
2019-03-06T01:41:47.523Z,10.37
2019-03-06T01:45:00.358Z,10.78
2019-03-06T01:48:04.216Z,11.53
2019-03-06T01:51:08.278Z,11.20
2019-03-06T01:54:12.034Z,11.00
2019-03-06T01:57:15.814Z,10.73
2019-03-06T02:00:20.071Z,11.93
2019-03-06T02:03:23.903Z,11.50
2019-03-06T02:06:27.730Z,12.03
2019-03-06T02:09:32.027Z,10.90
2019-03-06T02:12:35.777Z,12.10
2019-03-06T02:15:39.727Z,11.83
2019-03-06T02:18:43.454Z,12.20
2019-03-06T02:21:47.166Z,10.73
2019-03-06T02:24:50.920Z,11.68
2019-03-06T02:27:54.674Z,11.65
2019-03-06T02:30:58.347Z,11.37
2019-03-06T02:34:02.155Z,11.40
2019-03-06T02:37:05.882Z,11.87
2019-03-06T02:40:09.710Z,11.73
2019-03-06T02:43:13.444Z,11.10
2019-03-06T02:46:17.191Z,12.00
2019-03-06T02:49:20.867Z,11.33
2019-03-06T02:52:24.639Z,12.60
2019-03-06T02:55:29.134Z,12.23
2019-03-06T02:58:42.174Z,12.27
2019-03-06T03:02:03.855Z,12.77
2019-03-06T03:05:32.335Z,12.47
2019-03-06T03:08:36.007Z,12.77
2019-03-06T03:11:39.754Z,12.70
2019-03-06T03:14:43.713Z,11.63
2019-03-06T03:17:47.478Z,13.23
2019-03-06T03:20:51.298Z,12.60
2019-03-06T03:23:55.117Z,12.13
2019-03-06T03:26:59.128Z,12.33
2019-03-06T03:30:02.988Z,12.50
2019-03-06T03:33:06.915Z,13.03
2019-03-06T03:36:10.607Z,12.53
2019-03-06T03:39:14.279Z,13.13
2019-03-06T03:42:18.751Z,12.95
2019-03-06T03:45:22.635Z,12.40
2019-03-06T03:48:26.372Z,12.20
2019-03-06T03:51:30.066Z,13.57
2019-03-06T03:54:33.736Z,12.37
2019-03-06T03:57:37.502Z,12.37
2019-03-06T04:00:41.272Z,12.80
2019-03-06T04:03:45.187Z,12.47
2019-03-06T04:06:49.085Z,12.10
2019-03-06T04:09:53.072Z,12.58
2019-03-06T04:12:56.755Z,12.40
2019-03-06T04:16:00.739Z,12.28
2019-03-06T04:19:04.426Z,12.10
2019-03-06T04:22:08.070Z,12.47
2019-03-06T04:25:11.927Z,12.47
2019-03-06T04:28:15.632Z,11.50
2019-03-06T04:31:19.451Z,11.73
2019-03-06T04:34:23.181Z,12.17
2019-03-06T04:37:27.076Z,12.07
2019-03-06T04:40:30.986Z,11.88
2019-03-06T04:43:34.698Z,12.00
2019-03-06T04:46:38.344Z,12.40
2019-03-06T04:49:42.042Z,13.40
2019-03-06T04:52:45.701Z,12.30
2019-03-06T04:55:49.646Z,11.97
2019-03-06T04:58:53.754Z,12.67
2019-03-06T05:01:57.501Z,13.43
2019-03-06T05:05:01.426Z,12.87
2019-03-06T05:08:05.754Z,13.67
2019-03-06T05:11:09.570Z,12.97
2019-03-06T05:14:13.237Z,12.93
2019-03-06T05:17:35.919Z,11.60
2019-03-06T05:20:39.690Z,13.30
2019-03-06T05:23:43.590Z,12.33
2019-03-06T05:26:47.299Z,13.90
2019-03-06T05:29:51.274Z,14.53
2019-03-06T05:32:55.459Z,16.00
2019-03-06T05:36:40.956Z,15.63
2019-03-06T05:39:44.736Z,15.90
2019-03-06T05:42:48.386Z,16.77
2019-03-06T05:45:52.099Z,15.40
2019-03-06T05:48:55.769Z,15.10
2019-03-06T05:51:59.770Z,14.43
2019-03-06T05:55:03.582Z,16.10
2019-03-06T05:58:07.304Z,16.90
2019-03-06T06:01:10.993Z,16.17
2019-03-06T06:04:14.683Z,16.27
2019-03-06T06:07:18.375Z,16.33
2019-03-06T06:10:22.130Z,16.15
2019-03-06T06:13:26.085Z,15.83
2019-03-06T06:16:29.862Z,14.47
2019-03-06T06:19:33.518Z,16.37
2019-03-06T06:22:51.283Z,15.80
2019-03-06T06:25:55.044Z,14.50
2019-03-06T06:28:58.835Z,14.47
2019-03-06T06:32:02.560Z,14.80
2019-03-06T06:35:07.570Z,15.17
2019-03-06T06:38:11.296Z,14.37
2019-03-06T06:41:15.078Z,14.67
2019-03-06T06:44:18.790Z,14.65
2019-03-06T06:47:22.449Z,14.90
2019-03-06T06:50:26.393Z,15.30
2019-03-06T06:53:42.366Z,15.47
2019-03-06T06:57:14.294Z,15.10
2019-03-06T07:01:15.686Z,13.77
2019-03-06T07:04:58.619Z,14.13
2019-03-06T07:08:28.442Z,13.70
2019-03-06T07:11:42.414Z,13.83
2019-03-06T07:15:01.601Z,13.20
2019-03-06T07:18:30.665Z,14.27
2019-03-06T07:21:41.320Z,14.17
2019-03-06T07:25:08.192Z,13.23
2019-03-06T07:28:32.375Z,13.00
2019-03-06T07:31:44.381Z,14.70
2019-03-06T07:35:41.878Z,13.40
2019-03-06T07:38:45.651Z,14.23
2019-03-06T07:41:57.131Z,13.90
2019-03-06T07:45:59.763Z,13.87
2019-03-06T07:49:19.604Z,13.93
2019-03-06T07:52:41.182Z,13.47
2019-03-06T07:55:57.402Z,13.60
2019-03-06T07:59:01.360Z,12.63
2019-03-06T08:02:08.729Z,12.95
2019-03-06T08:05:12.435Z,12.73
2019-03-06T08:08:16.246Z,12.43
2019-03-06T08:11:27.346Z,12.53
2019-03-06T08:14:44.542Z,12.17
2019-03-06T08:18:25.239Z,12.57
2019-03-06T08:21:35.168Z,11.97
2019-03-06T08:24:47.291Z,12.10
2019-03-06T08:27:51.019Z,11.20
2019-03-06T08:31:04.866Z,11.80
2019-03-06T08:34:08.887Z,12.53
2019-03-06T08:37:12.653Z,12.40
2019-03-06T08:40:16.414Z,10.57
2019-03-06T08:43:20.257Z,11.00
2019-03-06T08:46:41.467Z,10.93
2019-03-06T08:49:55.466Z,10.40
2019-03-06T08:53:21.986Z,9.87
2019-03-06T08:56:42.153Z,10.40
2019-03-06T08:59:55.783Z,10.70
2019-03-06T09:03:16.947Z,10.03
2019-03-06T09:06:35.069Z,10.77
2019-03-06T09:09:49.655Z,10.20
2019-03-06T09:13:01.719Z,10.20
2019-03-06T09:16:34.457Z,10.35
2019-03-06T09:20:04.814Z,10.63
2019-03-06T09:23:23.425Z,9.83
2019-03-06T09:26:43.669Z,9.53
2019-03-06T09:30:15.983Z,9.18
2019-03-06T09:33:35.493Z,9.20
2019-03-06T09:36:56.722Z,9.60
2019-03-06T09:40:18.150Z,9.83
2019-03-06T09:43:29.933Z,9.70
2019-03-06T09:46:43.746Z,10.23
2019-03-06T09:50:00.437Z,9.33
2019-03-06T09:53:23.605Z,9.10
2019-03-06T09:56:38.248Z,8.20
2019-03-06T09:59:58.040Z,7.70
2019-03-06T10:03:12.530Z,8.27
2019-03-06T10:06:33.864Z,9.00
2019-03-06T10:09:42.299Z,8.43
2019-03-06T10:12:54.405Z,8.53
2019-03-06T10:16:15.208Z,8.50
2019-03-06T10:19:23.442Z,7.90
2019-03-06T10:22:27.197Z,7.70
2019-03-06T10:25:31.330Z,7.23
2019-03-06T10:28:36.707Z,7.77
2019-03-06T10:31:41.546Z,7.30
2019-03-06T10:34:45.215Z,7.03
2019-03-06T10:37:49.194Z,7.73
2019-03-06T10:40:52.959Z,8.08
2019-03-06T10:43:56.737Z,7.43
2019-03-06T10:47:00.714Z,8.67
2019-03-06T10:50:05.327Z,8.40
2019-03-06T10:53:09.350Z,9.80
2019-03-06T10:56:13.486Z,10.53
2019-03-06T10:59:17.309Z,9.20
2019-03-06T11:02:21.206Z,9.47
2019-03-06T11:05:27.565Z,9.47
2019-03-06T11:08:31.434Z,9.23
2019-03-06T11:11:35.217Z,7.87
2019-03-06T11:14:39.118Z,7.80
2019-03-06T11:17:42.839Z,7.10
2019-03-06T11:20:47.211Z,7.30
2019-03-06T11:23:51.122Z,7.60
2019-03-06T11:26:55.042Z,6.83
2019-03-06T11:29:58.816Z,6.93
2019-03-06T11:33:03.486Z,7.60
2019-03-06T11:36:07.450Z,7.20
2019-03-06T11:39:12.362Z,7.03
2019-03-06T11:42:16.198Z,6.40
2019-03-06T11:45:20.170Z,6.60
2019-03-06T11:48:24.165Z,6.40
2019-03-06T11:51:27.923Z,6.10
2019-03-06T11:54:32.114Z,6.13
2019-03-06T11:57:36.182Z,6.77
2019-03-06T12:00:43.918Z,6.90
2019-03-06T12:03:48.185Z,6.33
2019-03-06T12:06:52.050Z,6.13
2019-03-06T12:09:55.793Z,6.90
2019-03-06T12:12:59.494Z,6.20
2019-03-06T12:16:04.162Z,6.40
2019-03-06T12:19:07.987Z,5.87
2019-03-06T12:22:11.853Z,6.20
2019-03-06T12:25:15.968Z,6.40
2019-03-06T12:28:19.930Z,5.90
2019-03-06T12:31:23.612Z,5.83
2019-03-06T12:34:27.390Z,6.10
2019-03-06T12:37:31.194Z,5.60
2019-03-06T12:40:35.163Z,5.50
2019-03-06T12:43:38.877Z,5.77
2019-03-06T12:46:43.465Z,5.47
2019-03-06T12:49:47.321Z,5.10
2019-03-06T12:52:51.007Z,5.60
2019-03-06T12:55:54.749Z,5.30
2019-03-06T12:58:58.855Z,5.00
2019-03-06T13:02:02.720Z,5.10
2019-03-06T13:05:06.621Z,4.43
2019-03-06T13:08:19.507Z,4.63
2019-03-06T13:11:15.915Z,4.77
2019-03-06T13:14:19.858Z,4.00
2019-03-06T13:17:23.882Z,4.20
2019-03-06T13:20:27.627Z,4.03
2019-03-06T13:23:31.773Z,4.30
2019-03-06T13:26:35.479Z,4.37
2019-03-06T13:29:39.242Z,4.10
2019-03-06T13:32:58.804Z,4.30
2019-03-06T13:36:02.822Z,3.97
2019-03-06T13:39:08.162Z,4.17
2019-03-06T13:42:12.076Z,3.97
2019-03-06T13:45:16.446Z,3.87
2019-03-06T13:48:20.142Z,4.00
2019-03-06T13:51:24.539Z,3.87
2019-03-06T13:54:28.536Z,4.70
2019-03-06T13:57:33.155Z,4.07
2019-03-06T14:00:36.877Z,3.63
2019-03-06T14:03:40.575Z,4.10
2019-03-06T14:06:44.462Z,3.60
2019-03-06T14:09:48.221Z,4.07
2019-03-06T14:12:51.958Z,4.27
2019-03-06T14:15:55.746Z,4.37
2019-03-06T14:18:59.526Z,3.60
2019-03-06T14:22:03.743Z,3.60
2019-03-06T14:25:07.859Z,4.00
2019-03-06T14:28:11.666Z,4.50
2019-03-06T14:31:16.237Z,4.23
2019-03-06T14:34:20.037Z,4.37
2019-03-06T14:37:24.199Z,4.20
2019-03-06T14:40:29.531Z,4.50
2019-03-06T14:43:33.565Z,4.23
2019-03-06T14:46:37.338Z,4.00
2019-03-06T14:49:41.091Z,4.30
2019-03-06T14:52:44.910Z,4.67
2019-03-06T14:55:48.696Z,5.10
2019-03-06T14:58:52.395Z,4.77
2019-03-06T15:01:56.225Z,5.30
2019-03-06T15:05:00.291Z,4.80
2019-03-06T15:08:06.062Z,5.33
2019-03-06T15:11:09.879Z,4.43
2019-03-06T15:14:13.974Z,4.90
2019-03-06T15:17:17.754Z,4.77
2019-03-06T15:20:21.551Z,4.73
2019-03-06T15:23:25.328Z,5.00
2019-03-06T15:26:29.030Z,4.97
2019-03-06T15:29:32.776Z,4.83
2019-03-06T15:32:36.559Z,5.10
2019-03-06T15:35:40.241Z,4.80
2019-03-06T15:38:44.097Z,5.23
2019-03-06T15:41:48.079Z,5.03
2019-03-06T15:44:51.958Z,5.23
2019-03-06T15:47:55.947Z,5.83
2019-03-06T15:51:00.263Z,6.70
2019-03-06T15:54:04.097Z,6.67
2019-03-06T15:57:10.062Z,5.90
2019-03-06T16:00:23.078Z,5.77
2019-03-06T16:03:26.910Z,5.60
2019-03-06T16:06:30.799Z,5.73
2019-03-06T16:09:35.523Z,5.73
2019-03-06T16:12:39.301Z,5.53
2019-03-06T16:15:43.116Z,6.07
2019-03-06T16:18:46.898Z,6.37
2019-03-06T16:21:50.639Z,6.43
2019-03-06T16:24:54.474Z,6.53
2019-03-06T16:27:58.281Z,6.53
2019-03-06T16:31:02.120Z,6.97
2019-03-06T16:34:05.913Z,7.40
2019-03-06T16:37:09.758Z,6.93
2019-03-06T16:40:15.794Z,7.23
2019-03-06T16:43:19.446Z,6.83
2019-03-06T16:46:23.402Z,7.87
2019-03-06T16:49:27.125Z,8.10
2019-03-06T16:52:31.206Z,8.40
2019-03-06T16:55:35.035Z,8.03
2019-03-06T16:58:39.138Z,8.33
2019-03-06T17:01:42.923Z,9.03
2019-03-06T17:04:46.971Z,9.20
2019-03-06T17:07:51.222Z,9.87
2019-03-06T17:10:55.253Z,9.47
2019-03-06T17:13:58.986Z,10.85
2019-03-06T17:17:02.853Z,9.83
2019-03-06T17:20:07.913Z,10.17
2019-03-06T17:23:11.750Z,9.77
2019-03-06T17:26:15.473Z,10.50
2019-03-06T17:29:19.316Z,10.87
2019-03-06T17:32:23.289Z,10.20
2019-03-06T17:35:27.627Z,9.57
2019-03-06T17:38:31.413Z,10.63
2019-03-06T17:41:35.241Z,9.63
2019-03-06T17:44:39.096Z,10.23
2019-03-06T17:47:43.057Z,10.90
2019-03-06T17:50:47.002Z,9.93
2019-03-06T17:53:50.734Z,9.87
2019-03-06T17:56:54.738Z,10.37
2019-03-06T17:59:58.493Z,9.57
2019-03-06T18:03:02.393Z,10.00
2019-03-06T18:06:06.262Z,8.80
2019-03-06T18:09:10.309Z,9.97
2019-03-06T18:12:16.049Z,9.63
2019-03-06T18:15:19.718Z,9.30
2019-03-06T18:18:23.590Z,9.40
2019-03-06T18:21:28.173Z,9.23
2019-03-06T18:24:31.854Z,9.27
2019-03-06T18:27:35.789Z,9.57
2019-03-06T18:30:39.572Z,8.40
2019-03-06T18:33:43.298Z,9.50
2019-03-06T18:36:47.438Z,8.47
2019-03-06T18:39:51.205Z,8.83
2019-03-06T18:42:55.176Z,8.60
2019-03-06T18:45:58.857Z,7.97
2019-03-06T18:49:02.574Z,8.73
2019-03-06T18:52:06.505Z,8.85
2019-03-06T18:55:10.726Z,7.80
2019-03-06T18:58:14.524Z,8.40
2019-03-06T19:01:18.311Z,8.30
2019-03-06T19:04:22.742Z,7.62
2019-03-06T19:07:26.546Z,8.57
2019-03-06T19:10:30.622Z,7.67
2019-03-06T19:13:34.509Z,8.50
2019-03-06T19:16:38.344Z,7.67
2019-03-06T19:19:42.151Z,7.63
2019-03-06T19:22:46.947Z,7.43
2019-03-06T19:25:50.771Z,7.37
2019-03-06T19:28:54.589Z,7.30
2019-03-06T19:31:58.363Z,7.43
2019-03-06T19:35:02.175Z,8.40
2019-03-06T19:38:06.070Z,8.30
2019-03-06T19:41:09.798Z,8.10
2019-03-06T19:44:13.586Z,7.33
2019-03-06T19:47:17.374Z,8.03
2019-03-06T19:50:21.562Z,7.77
2019-03-06T19:53:26.174Z,7.67
2019-03-06T19:56:29.930Z,7.77
2019-03-06T19:59:33.719Z,7.47
2019-03-06T20:02:37.527Z,7.53
2019-03-06T20:05:41.782Z,7.92
2019-03-06T20:08:45.583Z,8.50
2019-03-06T20:11:49.451Z,7.30
2019-03-06T20:14:53.924Z,8.07
2019-03-06T20:17:57.760Z,7.60
2019-03-06T20:21:01.653Z,8.17
2019-03-06T20:24:05.429Z,8.00
2019-03-06T20:27:09.314Z,7.15
2019-03-06T20:30:14.536Z,8.30
2019-03-06T20:33:18.755Z,8.57
2019-03-06T20:36:22.659Z,7.67
2019-03-06T20:39:26.588Z,8.33
2019-03-06T20:42:30.527Z,7.00
2019-03-06T20:45:34.473Z,6.60
2019-03-06T20:48:38.444Z,6.17
2019-03-06T20:51:42.498Z,7.10
2019-03-06T20:54:46.302Z,6.30
2019-03-06T20:57:50.218Z,6.17
2019-03-06T21:00:53.871Z,8.17
2019-03-06T21:03:57.912Z,7.37
2019-03-06T21:07:01.801Z,7.30
2019-03-06T21:10:06.618Z,6.73
2019-03-06T21:13:10.432Z,6.10
2019-03-06T21:16:14.198Z,7.00
2019-03-06T21:19:17.988Z,6.93
2019-03-06T21:22:21.747Z,7.77
2019-03-06T21:25:25.811Z,7.10
2019-03-06T21:28:29.699Z,7.10
2019-03-06T21:31:33.425Z,7.37
2019-03-06T21:34:37.247Z,7.63
2019-03-06T21:37:41.073Z,7.78
2019-03-06T21:40:44.806Z,6.77
2019-03-06T21:43:48.565Z,7.03
2019-03-06T21:46:52.529Z,6.50
2019-03-06T21:49:56.297Z,6.53
2019-03-06T21:53:00.115Z,6.23
2019-03-06T21:56:04.196Z,6.63
2019-03-06T21:59:08.068Z,6.47
2019-03-06T22:02:11.894Z,6.25
2019-03-06T22:05:16.063Z,6.50
2019-03-06T22:08:19.804Z,6.37
2019-03-06T22:11:23.634Z,5.93
2019-03-06T22:14:27.614Z,7.10
2019-03-06T22:17:31.714Z,6.23
2019-03-06T22:20:35.820Z,6.60
2019-03-06T22:23:39.595Z,7.17
2019-03-06T22:26:43.669Z,7.07
2019-03-06T22:29:47.534Z,6.70
2019-03-06T22:32:51.392Z,6.33
2019-03-06T22:35:55.408Z,6.57
2019-03-06T22:38:59.426Z,6.90
2019-03-06T22:42:03.712Z,6.83
2019-03-06T22:45:08.275Z,6.60
2019-03-06T22:48:12.268Z,7.30
2019-03-06T22:51:15.993Z,6.10
2019-03-06T22:54:20.274Z,7.43
2019-03-06T22:57:24.075Z,7.17
2019-03-06T23:00:43.319Z,7.87
2019-03-06T23:03:47.192Z,7.63
2019-03-06T23:06:50.953Z,8.28
2019-03-06T23:09:54.702Z,8.77
2019-03-06T23:12:58.738Z,7.77
2019-03-06T23:16:02.582Z,7.90
2019-03-06T23:19:06.520Z,8.93
2019-03-06T23:22:10.315Z,8.67
2019-03-06T23:25:14.142Z,9.93
2019-03-06T23:28:17.883Z,10.53
2019-03-06T23:31:21.806Z,9.97
2019-03-06T23:34:25.568Z,8.00
2019-03-06T23:37:29.337Z,7.63
2019-03-06T23:40:33.022Z,6.93
2019-03-06T23:43:36.814Z,7.43
2019-03-06T23:46:41.039Z,7.67
2019-03-06T23:49:44.838Z,7.07
2019-03-06T23:53:14.277Z,7.00
2019-03-06T23:56:18.318Z,7.83
2019-03-06T23:59:22.133Z,7.67
